Time;durP1;ratioP1;P1;durP2;ratioP2;P2;SDS_P1;SDS_P2;PMS_P1;PMS_P2;Temp;Humidity;BMP_temperature;BMP_pressure;BME280_temperature;BME280_humidity;BME280_pressure;Samples;Min_cycle;Max_cycle;Signal;HPM_P1;HPM_P2
2022/01/29 00:00:15;;;;;;;1.40;0.93;;;22.00;76.20;;;;;;5009885;28;95719;-58
2022/01/29 00:02:48;;;;;;;1.55;0.90;;;22.00;76.20;;;;;;5008804;28;95868;-58
2022/01/29 00:05:18;;;;;;;1.07;1.00;;;22.00;76.30;;;;;;5009846;28;95728;-59
2022/01/29 00:07:49;;;;;;;1.37;0.80;;;22.00;76.10;;;;;;5008750;28;96024;-58
2022/01/29 00:10:22;;;;;;;1.05;0.90;;;22.00;76.10;;;;;;5008308;28;95936;-58
2022/01/29 00:12:54;;;;;;;2.15;1.20;;;22.00;76.10;;;;;;5003736;28;96417;-58
2022/01/29 00:15:25;;;;;;;2.80;1.02;;;22.00;76.00;;;;;;5004643;28;98268;-58
2022/01/29 00:17:56;;;;;;;2.80;1.50;;;22.00;76.10;;;;;;5006807;28;95679;-58
2022/01/29 00:20:27;;;;;;;1.40;1.20;;;22.00;76.00;;;;;;5010010;28;95626;-57
2022/01/29 00:23:01;;;;;;;1.55;1.10;;;22.00;76.00;;;;;;5008597;28;96671;-57
2022/01/29 00:25:32;;;;;;;;;;;22.00;76.10;;;;;;5006862;28;95823;-58
2022/01/29 00:28:03;;;;;;;1.15;0.95;;;22.00;75.90;;;;;;5009197;28;97167;-58
2022/01/29 00:30:40;;;;;;;;;;;22.10;75.90;;;;;;5005246;28;95884;-57
2022/01/29 00:33:15;;;;;;;2.50;1.40;;;22.10;75.90;;;;;;5008886;28;96218;-58
2022/01/29 00:35:47;;;;;;;1.63;1.13;;;22.10;75.90;;;;;;5009305;28;95789;-57
2022/01/29 00:38:18;;;;;;;0.85;0.85;;;22.10;66.50;;;;;;5009278;28;95630;-57
2022/01/29 00:40:50;;;;;;;2.75;1.40;;;22.10;76.00;;;;;;5008078;28;95897;-58
2022/01/29 00:43:22;;;;;;;2.25;1.20;;;22.10;75.80;;;;;;5004456;28;95992;-58
2022/01/29 00:45:52;;;;;;;2.67;1.13;;;22.10;75.80;;;;;;5002115;28;96372;-57
2022/01/29 00:48:22;;;;;;;1.13;1.08;;;22.10;75.80;;;;;;5010701;28;95536;-57
2022/01/29 00:50:52;;;;;;;1.33;1.17;;;22.10;75.80;;;;;;5013134;28;95711;-58
2022/01/29 00:53:24;;;;;;;1.48;1.08;;;22.10;75.80;;;;;;5012064;28;97124;-58
2022/01/29 00:55:55;;;;;;;3.15;1.20;;;22.10;75.70;;;;;;5012690;28;95776;-58
2022/01/29 00:58:26;;;;;;;2.25;1.30;;;22.10;75.70;;;;;;5007744;28;95878;-58
2022/01/29 01:00:58;;;;;;;2.13;1.38;;;22.10;75.60;;;;;;5008057;27;95554;-58
2022/01/29 01:03:30;;;;;;;1.77;1.20;;;22.20;75.80;;;;;;5007930;28;96360;-57
2022/01/29 01:06:02;;;;;;;1.48;0.95;;;22.20;75.70;;;;;;5011488;28;95944;-58
2022/01/29 01:08:33;;;;;;;1.20;1.02;;;22.20;75.60;;;;;;5008756;28;95667;-57
2022/01/29 01:11:04;;;;;;;2.00;1.38;;;22.20;75.60;;;;;;5009115;28;95624;-58
2022/01/29 01:13:34;;;;;;;1.77;0.98;;;22.20;75.60;;;;;;5012505;28;96213;-58
2022/01/29 01:16:05;;;;;;;2.05;1.30;;;22.20;75.60;;;;;;5005755;28;95402;-58
2022/01/29 01:18:37;;;;;;;1.35;1.25;;;22.20;75.60;;;;;;5009227;28;96087;-58
2022/01/29 01:21:08;;;;;;;2.60;1.35;;;22.20;75.50;;;;;;5012766;28;95941;-58
2022/01/29 01:23:40;;;;;;;1.48;1.00;;;22.20;75.50;;;;;;5012750;28;96508;-58
2022/01/29 01:26:10;;;;;;;1.65;1.15;;;22.20;75.50;;;;;;5009181;28;95884;-58
2022/01/29 01:28:42;;;;;;;2.90;1.10;;;22.20;75.50;;;;;;5010888;28;95893;-58
2022/01/29 01:31:13;;;;;;;1.85;1.00;;;22.20;75.40;;;;;;5002723;28;95788;-57
2022/01/29 01:33:46;;;;;;;1.30;1.20;;;22.30;75.40;;;;;;5009073;28;96444;-58
2022/01/29 01:36:22;;;;;;;2.03;1.33;;;22.20;75.50;;;;;;5011526;28;95829;-57
2022/01/29 01:39:06;;;;;;;2.77;1.37;;;22.20;75.50;;;;;;5011902;28;95682;-58
2022/01/29 01:41:41;;;;;;;1.95;1.30;;;22.30;75.60;;;;;;5010268;28;95731;-58
2022/01/29 01:44:14;;;;;;;1.10;0.98;;;22.30;75.50;;;;;;5010348;28;96185;-57
2022/01/29 01:46:44;;;;;;;1.75;1.23;;;22.30;75.50;;;;;;5004901;28;95457;-58
2022/01/29 01:49:16;;;;;;;2.93;1.70;;;22.30;75.50;;;;;;5012609;28;96109;-60
2022/01/29 01:51:47;;;;;;;4.20;1.40;;;22.30;75.40;;;;;;5011822;28;96883;-58
2022/01/29 01:54:19;;;;;;;3.97;1.85;;;22.30;75.40;;;;;;5007123;28;96990;-58
2022/01/29 01:56:50;;;;;;;2.45;1.60;;;22.30;75.40;;;;;;5011719;28;95987;-58
2022/01/29 01:59:22;;;;;;;1.85;1.50;;;22.30;75.30;;;;;;5010205;28;95984;-58
2022/01/29 02:01:52;;;;;;;2.72;1.70;;;22.30;75.40;;;;;;5007116;28;96160;-58
2022/01/29 02:04:23;;;;;;;2.20;1.80;;;22.30;75.50;;;;;;5011896;28;95682;-58
2022/01/29 02:06:55;;;;;;;3.28;1.83;;;22.30;75.40;;;;;;5009541;28;97930;-58
2022/01/29 02:09:25;;;;;;;;;;;22.30;75.50;;;;;;5012270;28;95600;-58
2022/01/29 02:11:57;;;;;;;2.13;1.50;;;22.30;75.40;;;;;;5011827;28;95376;-59
2022/01/29 02:14:32;;;;;;;3.45;1.70;;;22.30;75.40;;;;;;5009119;28;96452;-58
2022/01/29 02:17:04;;;;;;;3.67;1.88;;;22.30;75.40;;;;;;5006287;28;95527;-58
2022/01/29 02:19:35;;;;;;;1.95;1.45;;;22.30;75.30;;;;;;5011098;28;96838;-58
2022/01/29 02:22:07;;;;;;;2.10;1.88;;;22.30;75.30;;;;;;5010286;28;95656;-58
2022/01/29 02:24:41;;;;;;;2.00;1.55;;;22.30;75.30;;;;;;5001616;28;96088;-59
2022/01/29 02:27:14;;;;;;;4.03;1.67;;;22.30;75.30;;;;;;5011313;28;95708;-58
2022/01/29 02:29:49;;;;;;;2.33;1.55;;;22.30;75.70;;;;;;5011168;28;95714;-57
2022/01/29 02:32:19;;;;;;;1.50;1.30;;;22.40;65.80;;;;;;5003921;28;97279;-58
2022/01/29 02:34:50;;;;;;;2.65;1.70;;;22.40;75.30;;;;;;5010611;28;96270;-59
2022/01/29 02:37:22;;;;;;;2.92;1.88;;;22.40;75.30;;;;;;5009406;28;95741;-58
2022/01/29 02:39:53;;;;;;;;;;;22.40;75.40;;;;;;5011078;28;95411;-58
2022/01/29 02:42:25;;;;;;;2.72;1.90;;;22.40;75.30;;;;;;5012309;28;95449;-58
2022/01/29 02:44:55;;;;;;;3.67;2.35;;;22.40;75.40;;;;;;5010525;28;96586;-59
2022/01/29 02:47:29;;;;;;;2.20;1.55;;;22.40;75.30;;;;;;5004943;28;96372;-58
2022/01/29 02:50:04;;;;;;;2.25;1.63;;;22.40;75.30;;;;;;5012223;28;95752;-58
2022/01/29 02:52:36;;;;;;;2.17;1.77;;;22.30;75.30;;;;;;5011324;28;95691;-59
2022/01/29 02:55:07;;;;;;;4.20;2.08;;;22.30;75.20;;;;;;5007204;28;95380;-58
2022/01/29 02:57:37;;;;;;;5.47;2.50;;;22.40;75.40;;;;;;5010269;28;95730;-57
2022/01/29 03:00:10;;;;;;;2.45;1.60;;;22.40;75.40;;;;;;5008529;28;96099;-58
2022/01/29 03:02:40;;;;;;;3.00;1.90;;;22.40;75.40;;;;;;5005139;28;97301;-59
2022/01/29 03:05:10;;;;;;;3.97;1.90;;;22.40;75.30;;;;;;5008143;28;96532;-58
2022/01/29 03:07:40;;;;;;;3.33;1.80;;;22.40;75.30;;;;;;5007056;28;96112;-58
2022/01/29 03:10:11;;;;;;;2.85;1.90;;;22.40;75.30;;;;;;5010176;28;95306;-58
2022/01/29 03:12:42;;;;;;;1.63;1.53;;;22.40;75.30;;;;;;5008292;28;95913;-58
2022/01/29 03:15:14;;;;;;;2.00;1.63;;;22.40;75.20;;;;;;5006341;28;96049;-58
2022/01/29 03:17:45;;;;;;;1.95;1.70;;;22.40;75.30;;;;;;5007615;28;101725;-58
2022/01/29 03:20:18;;;;;;;4.05;2.00;;;22.40;75.20;;;;;;5010552;28;95618;-58
2022/01/29 03:22:48;;;;;;;4.63;2.13;;;22.40;75.10;;;;;;5010908;28;95577;-58
2022/01/29 03:25:19;;;;;;;2.15;1.80;;;22.40;75.20;;;;;;5005669;28;98492;-58
2022/01/29 03:27:52;;;;;;;3.83;2.03;;;22.40;75.10;;;;;;5009301;28;98040;-58
2022/01/29 03:30:23;;;;;;;2.53;1.60;;;22.40;75.00;;;;;;5005811;28;96209;-58
2022/01/29 03:32:55;;;;;;;3.60;2.10;;;22.40;75.10;;;;;;5005092;28;95654;-58
2022/01/29 03:35:25;;;;;;;4.80;1.92;;;22.40;75.10;;;;;;5010191;28;96451;-58
2022/01/29 03:37:56;;;;;;;2.95;2.13;;;22.50;75.10;;;;;;5010217;28;96336;-58
2022/01/29 03:40:29;;;;;;;2.03;1.88;;;22.50;75.70;;;;;;5009849;28;95859;-59
2022/01/29 03:43:08;;;;;;;2.00;1.73;;;22.40;75.60;;;;;;5007017;28;95693;-58
2022/01/29 03:45:38;;;;;;;3.25;1.67;;;22.50;75.20;;;;;;5001439;28;96362;-59
2022/01/29 03:48:08;;;;;;;3.30;1.83;;;22.50;75.10;;;;;;5009339;28;95443;-58
2022/01/29 03:50:38;;;;;;;2.22;1.58;;;22.50;75.10;;;;;;5011470;28;95681;-58
2022/01/29 03:53:08;;;;;;;1.65;1.38;;;22.50;75.00;;;;;;5008217;28;95615;-58
2022/01/29 03:55:40;;;;;;;5.65;2.13;;;22.50;75.10;;;;;;5010552;28;97200;-58
2022/01/29 03:58:11;;;;;;;3.90;1.40;;;22.50;75.00;;;;;;5010723;28;95818;-58
2022/01/29 04:00:41;;;;;;;2.63;1.92;;;22.50;75.10;;;;;;5004265;28;96867;-58
2022/01/29 04:03:11;;;;;;;4.53;2.00;;;22.50;75.10;;;;;;5010382;28;96235;-58
2022/01/29 04:05:41;;;;;;;3.58;1.75;;;22.50;75.00;;;;;;5009897;28;97255;-58
2022/01/29 04:08:17;;;;;;;2.45;1.63;;;22.50;74.90;;;;;;5009378;28;95810;-57
2022/01/29 04:10:47;;;;;;;3.28;1.60;;;22.50;74.90;;;;;;5010690;28;95631;-58
2022/01/29 04:13:24;;;;;;;2.40;1.65;;;22.50;74.90;;;;;;5002592;28;95629;-58
2022/01/29 04:15:55;;;;;;;4.15;2.15;;;22.50;74.80;;;;;;5004358;28;98555;-58
2022/01/29 04:18:28;;;;;;;2.92;1.90;;;22.50;74.90;;;;;;5006612;28;96107;-57
2022/01/29 04:20:59;;;;;;;3.08;1.90;;;22.50;74.80;;;;;;5006863;28;95801;-58
2022/01/29 04:23:33;;;;;;;5.72;2.08;;;22.50;74.80;;;;;;5008451;28;95663;-58
2022/01/29 04:26:05;;;;;;;3.30;1.63;;;22.50;74.90;;;;;;5001750;28;96666;-58
2022/01/29 04:28:40;;;;;;;1.92;1.77;;;22.50;74.80;;;;;;5007488;28;97615;-58
2022/01/29 04:31:16;;;;;;;2.63;1.60;;;22.50;74.80;;;;;;5006984;28;95846;-57
2022/01/29 04:33:48;;;;;;;1.67;1.58;;;22.50;74.80;;;;;;4990274;28;95942;-58
2022/01/29 04:36:23;;;;;;;4.20;1.77;;;22.50;74.80;;;;;;5007227;28;96161;-58
2022/01/29 04:38:55;;;;;;;3.08;1.60;;;22.60;74.70;;;;;;5008134;28;96540;-57
2022/01/29 04:41:27;;;;;;;1.80;1.52;;;22.50;74.60;;;;;;5007657;28;95733;-58
2022/01/29 04:43:59;;;;;;;4.63;1.90;;;22.60;74.70;;;;;;5007702;28;98809;-58
2022/01/29 04:46:29;;;;;;;3.25;1.92;;;22.50;74.60;;;;;;5004434;28;98222;-58
2022/01/29 04:49:00;;;;;;;4.70;2.10;;;22.50;74.60;;;;;;5010399;28;95876;-57
2022/01/29 04:51:29;;;;;;;2.63;2.00;;;22.60;74.60;;;;;;5007187;28;95906;-58
2022/01/29 04:54:03;;;;;;;2.15;1.58;;;22.50;74.50;;;;;;5010058;28;95263;-58
2022/01/29 04:56:35;;;;;;;2.80;1.60;;;22.60;74.60;;;;;;5006862;28;96509;-59
2022/01/29 04:59:07;;;;;;;1.95;1.42;;;22.60;74.50;;;;;;5008073;28;97529;-59
2022/01/29 05:01:36;;;;;;;;;;;22.60;74.60;;;;;;5004049;28;97052;-58
2022/01/29 05:04:09;;;;;;;2.05;1.55;;;22.60;74.50;;;;;;5009948;28;95794;-58
2022/01/29 05:06:39;;;;;;;3.60;1.58;;;22.60;74.50;;;;;;5008397;28;97405;-59
2022/01/29 05:09:10;;;;;;;2.88;1.85;;;22.60;74.50;;;;;;5008289;28;95367;-58
2022/01/29 05:11:42;;;;;;;2.65;1.80;;;22.50;74.40;;;;;;5007812;28;95435;-59
2022/01/29 05:14:24;;;;;;;2.63;1.60;;;22.60;74.40;;;;;;5009423;28;95840;-58
2022/01/29 05:26:48;;;;;;;2.58;1.75;;;22.60;74.50;;;;;;4998903;28;102225;-58
2022/01/29 05:28:14;;;;;;;3.03;1.55;;;22.60;74.30;;;;;;5005946;28;96296;-58
2022/01/29 05:30:45;;;;;;;2.30;1.73;;;22.60;74.30;;;;;;5002041;28;97805;-58
2022/01/29 05:33:17;;;;;;;1.73;1.63;;;22.60;74.40;;;;;;5008875;28;95161;-58
2022/01/29 05:35:49;;;;;;;2.40;1.75;;;22.60;74.40;;;;;;5007361;28;95798;-58
2022/01/29 05:38:20;;;;;;;2.10;1.80;;;22.60;64.70;;;;;;5005785;28;96438;-58
2022/01/29 05:40:51;;;;;;;2.78;1.23;;;22.60;74.30;;;;;;5009971;28;95847;-58
2022/01/29 05:43:23;;;;;;;3.33;1.90;;;22.60;74.30;;;;;;5011925;28;95887;-58
2022/01/29 05:45:52;;;;;;;;;;;22.60;74.20;;;;;;5004377;28;95369;-58
2022/01/29 05:48:23;;;;;;;4.53;2.20;;;22.60;64.60;;;;;;5008603;28;97452;-58
2022/01/29 05:50:53;;;;;;;3.83;1.97;;;22.60;74.30;;;;;;5013092;28;95702;-58
2022/01/29 05:53:23;;;;;;;2.40;1.90;;;22.60;74.20;;;;;;5009583;28;95886;-58
2022/01/29 05:55:55;;;;;;;1.75;1.35;;;22.60;74.20;;;;;;5011119;28;96022;-58
2022/01/29 05:58:26;;;;;;;3.45;1.33;;;22.60;74.10;;;;;;5010286;28;96606;-58
2022/01/29 06:00:56;;;;;;;5.00;2.25;;;22.50;74.00;;;;;;5005733;27;95974;-58
2022/01/29 06:03:27;;;;;;;1.63;1.50;;;22.60;74.00;;;;;;5012191;28;95955;-58
2022/01/29 06:05:58;;;;;;;2.85;1.50;;;22.60;74.00;;;;;;5013149;28;95798;-58
2022/01/29 06:08:28;;;;;;;3.00;1.38;;;22.60;74.00;;;;;;5011778;28;96233;-58
2022/01/29 06:10:58;;;;;;;2.30;1.55;;;22.60;74.10;;;;;;5011803;28;95753;-59
2022/01/29 06:13:28;;;;;;;2.15;1.50;;;22.60;73.90;;;;;;5010916;28;95413;-58
2022/01/29 06:15:58;;;;;;;1.88;1.65;;;22.60;74.00;;;;;;5007386;28;96938;-58
2022/01/29 06:18:30;;;;;;;4.63;1.57;;;22.50;73.90;;;;;;5010938;28;96076;-59
2022/01/29 06:21:04;;;;;;;3.63;1.60;;;22.50;74.00;;;;;;5010919;28;95546;-59
2022/01/29 06:23:37;;;;;;;5.57;1.55;;;22.60;74.00;;;;;;5010354;28;95193;-58
2022/01/29 06:26:10;;;;;;;1.65;1.30;;;22.60;73.90;;;;;;5010330;28;95862;-58
2022/01/29 06:28:42;;;;;;;3.08;1.63;;;22.60;73.90;;;;;;5011343;28;97031;-58
2022/01/29 06:31:13;;;;;;;4.20;1.65;;;22.50;73.80;;;;;;5006349;28;96101;-58
2022/01/29 06:33:44;;;;;;;3.17;1.70;;;22.60;73.90;;;;;;5010484;28;95213;-58
2022/01/29 06:36:15;;;;;;;3.78;1.73;;;22.50;73.80;;;;;;5008376;28;95425;-58
2022/01/29 06:38:47;;;;;;;3.20;1.52;;;22.50;73.80;;;;;;5011326;28;95942;-58
2022/01/29 06:41:19;;;;;;;2.90;1.48;;;22.50;73.80;;;;;;5009870;28;95777;-58
2022/01/29 06:43:53;;;;;;;2.83;1.65;;;22.50;73.80;;;;;;5011271;28;95662;-58
2022/01/29 06:46:25;;;;;;;2.90;1.83;;;22.50;74.40;;;;;;5005391;28;96068;-57
2022/01/29 06:48:58;;;;;;;3.65;1.52;;;22.50;73.80;;;;;;5006826;28;97917;-58
2022/01/29 06:51:29;;;;;;;1.40;1.15;;;22.50;73.70;;;;;;5006069;28;95942;-57
2022/01/29 06:54:06;;;;;;;2.55;1.48;;;22.50;73.70;;;;;;5010546;28;95229;-58
2022/01/29 06:56:40;;;;;;;5.45;2.03;;;22.50;73.80;;;;;;5004967;28;95565;-58
2022/01/29 06:59:10;;;;;;;6.10;2.10;;;22.50;73.70;;;;;;5011102;28;96144;-58
2022/01/29 07:01:40;;;;;;;3.35;1.83;;;22.50;73.80;;;;;;4999512;28;95774;-60
2022/01/29 07:04:10;;;;;;;3.05;1.83;;;22.50;73.80;;;;;;5010247;28;95729;-60
2022/01/29 07:06:41;;;;;;;4.57;1.63;;;22.50;73.70;;;;;;5007756;28;95783;-60
2022/01/29 07:09:11;;;;;;;8.60;1.83;;;22.50;73.90;;;;;;5009667;28;96215;-60
2022/01/29 07:11:44;;;;;;;;;;;22.50;74.00;;;;;;5010194;28;95830;-61
2022/01/29 07:14:17;;;;;;;9.57;1.98;;;22.50;74.00;;;;;;5012693;28;95818;-60
2022/01/29 07:16:48;;;;;;;8.30;2.10;;;22.50;74.00;;;;;;5003119;28;95699;-61
2022/01/29 07:19:20;;;;;;;9.38;2.17;;;22.50;74.00;;;;;;5010133;28;96119;-60
2022/01/29 07:21:53;;;;;;;3.88;1.52;;;22.50;74.00;;;;;;5005185;28;95991;-62
2022/01/29 07:24:24;;;;;;;3.58;1.50;;;22.50;74.10;;;;;;5002518;28;95371;-61
2022/01/29 07:26:54;;;;;;;6.00;1.60;;;22.50;74.10;;;;;;5005772;28;95683;-60
2022/01/29 07:29:25;;;;;;;3.88;1.83;;;22.50;74.10;;;;;;5004694;28;96506;-60
2022/01/29 07:31:57;;;;;;;5.22;1.60;;;22.50;74.10;;;;;;5003510;28;95946;-61
2022/01/29 07:34:28;;;;;;;1.67;1.42;;;22.50;74.10;;;;;;5006492;28;95269;-60
2022/01/29 07:37:00;;;;;;;5.40;1.95;;;22.50;74.10;;;;;;5001839;28;95872;-60
2022/01/29 07:39:32;;;;;;;3.88;1.83;;;22.50;74.20;;;;;;5002183;28;95905;-60
2022/01/29 07:42:04;;;;;;;4.85;2.15;;;22.50;74.30;;;;;;5007693;28;95613;-59
2022/01/29 07:44:34;;;;;;;5.32;1.85;;;22.50;74.30;;;;;;5004454;28;97158;-61
2022/01/29 07:47:04;;;;;;;5.55;2.05;;;22.50;74.30;;;;;;4993824;28;95321;-60
2022/01/29 07:49:34;;;;;;;5.47;2.80;;;22.40;74.90;;;;;;5004204;28;96962;-61
2022/01/29 07:52:07;;;;;;;5.88;2.40;;;22.50;74.50;;;;;;5007733;28;95706;-61
2022/01/29 07:54:38;;;;;;;8.23;2.53;;;22.50;74.60;;;;;;5007248;28;95173;-61
2022/01/29 07:57:10;;;;;;;4.45;2.58;;;22.40;74.40;;;;;;5008911;28;95816;-60
2022/01/29 07:59:40;;;;;;;5.55;2.65;;;22.40;74.50;;;;;;5005933;28;97176;-60
2022/01/29 08:02:10;;;;;;;4.00;2.20;;;22.40;74.60;;;;;;5005747;28;95891;-60
2022/01/29 08:04:40;;;;;;;3.70;1.70;;;22.40;74.50;;;;;;5010465;28;95395;-60
2022/01/29 08:07:10;;;;;;;4.38;2.22;;;22.40;74.60;;;;;;5006839;28;95431;-61
2022/01/29 08:09:42;;;;;;;5.60;2.15;;;22.40;74.40;;;;;;5009054;28;96753;-60
2022/01/29 08:12:13;;;;;;;3.85;1.83;;;22.40;73.90;;;;;;5022685;28;95789;-60
2022/01/29 08:14:50;;;;;;;3.53;1.75;;;22.40;73.30;;;;;;5005083;28;95750;-61
2022/01/29 08:17:21;;;;;;;2.78;2.00;;;22.60;53.40;;;;;;5003399;28;95839;-60
2022/01/29 08:19:51;;;;;;;3.57;1.60;;;22.30;72.70;;;;;;5004325;28;96232;-61
2022/01/29 08:22:24;;;;;;;3.97;1.40;;;22.30;72.20;;;;;;5000792;28;95431;-62
2022/01/29 08:24:57;;;;;;;5.50;1.77;;;22.30;51.00;;;;;;5003973;28;95825;-60
2022/01/29 08:27:30;;;;;;;2.47;1.90;;;22.20;71.50;;;;;;5002653;28;96733;-61
2022/01/29 08:30:04;;;;;;;3.38;1.73;;;22.10;71.50;;;;;;5008835;28;96999;-60
2022/01/29 08:32:41;;;;;;;3.20;1.50;;;22.20;72.10;;;;;;5002270;28;97613;-61
2022/01/29 08:35:15;;;;;;;2.85;1.48;;;22.20;72.10;;;;;;5005765;28;95253;-62
2022/01/29 08:37:48;;;;;;;2.50;1.48;;;22.10;71.60;;;;;;5019176;28;95848;-60
2022/01/29 08:40:22;;;;;;;3.80;1.73;;;22.20;71.60;;;;;;5007291;28;96469;-62
2022/01/29 08:42:53;;;;;;;2.85;1.50;;;22.10;71.30;;;;;;5002556;28;95889;-60
2022/01/29 08:45:24;;;;;;;2.05;1.20;;;22.10;71.30;;;;;;4997938;28;96158;-60
2022/01/29 08:47:54;;;;;;;2.05;1.77;;;22.10;71.00;;;;;;5003192;28;95623;-62
2022/01/29 08:50:26;;;;;;;3.50;1.75;;;22.10;70.90;;;;;;5004243;28;96347;-61
2022/01/29 08:52:57;;;;;;;5.97;1.67;;;22.10;70.90;;;;;;5004250;28;95997;-60
2022/01/29 08:55:36;;;;;;;1.85;1.20;;;22.10;71.10;;;;;;5005807;28;95902;-61
2022/01/29 08:58:09;;;;;;;2.78;1.45;;;22.10;71.20;;;;;;5023653;28;95791;-62
2022/01/29 09:00:44;;;;;;;3.72;1.50;;;22.10;71.60;;;;;;5002640;28;97190;-61
2022/01/29 09:03:17;;;;;;;2.28;1.48;;;22.10;71.90;;;;;;5002215;28;96086;-60
2022/01/29 09:05:49;;;;;;;2.60;1.10;;;22.10;72.00;;;;;;5004763;28;95768;-61
2022/01/29 09:08:19;;;;;;;3.78;1.40;;;22.10;65.00;;;;;;5002877;28;95738;-62
2022/01/29 09:10:50;;;;;;;1.48;1.38;;;22.10;71.50;;;;;;5003038;28;96055;-60
2022/01/29 09:13:20;;;;;;;1.58;1.15;;;22.00;71.20;;;;;;5009133;28;95736;-61
2022/01/29 09:15:50;;;;;;;2.58;1.33;;;22.00;71.00;;;;;;5006249;28;97044;-60
2022/01/29 09:18:22;;;;;;;;;;;22.00;70.90;;;;;;5010185;28;95733;-60
2022/01/29 09:20:55;;;;;;;2.70;1.50;;;22.00;70.80;;;;;;5012626;28;96064;-60
2022/01/29 09:23:26;;;;;;;2.35;1.27;;;22.00;70.80;;;;;;5006669;28;96235;-60
2022/01/29 09:26:02;;;;;;;2.55;1.35;;;22.00;59.90;;;;;;5008276;28;95851;-60
2022/01/29 09:28:33;;;;;;;3.80;1.58;;;22.00;71.00;;;;;;5017818;28;95575;-61
2022/01/29 09:31:04;;;;;;;2.85;1.25;;;22.00;71.30;;;;;;5004257;28;96822;-60
2022/01/29 09:33:36;;;;;;;5.65;1.63;;;22.00;71.80;;;;;;5005264;28;98234;-60
2022/01/29 09:36:07;;;;;;;2.78;1.60;;;22.00;72.00;;;;;;5007798;28;95222;-60
2022/01/29 09:38:38;;;;;;;4.70;1.50;;;22.00;72.40;;;;;;5010611;28;95692;-60
2022/01/29 09:41:10;;;;;;;3.03;1.38;;;22.00;72.70;;;;;;5010800;28;96400;-60
2022/01/29 09:43:43;;;;;;;4.32;1.60;;;22.00;72.60;;;;;;5006680;28;96047;-60
2022/01/29 09:46:16;;;;;;;3.72;1.63;;;22.00;72.20;;;;;;5007322;27;95996;-60
2022/01/29 09:48:47;;;;;;;3.80;1.52;;;21.90;71.90;;;;;;5006662;28;95918;-61
2022/01/29 09:51:17;;;;;;;;;;;21.90;71.70;;;;;;5009286;28;96050;-60
2022/01/29 09:53:48;;;;;;;3.25;1.80;;;21.90;72.30;;;;;;5012850;28;95840;-61
2022/01/29 09:56:20;;;;;;;4.88;1.70;;;21.90;72.60;;;;;;5008259;28;95779;-61
2022/01/29 09:58:51;;;;;;;2.90;1.60;;;21.90;72.80;;;;;;5001481;28;95689;-61
2022/01/29 10:01:23;;;;;;;7.38;2.28;;;21.90;73.20;;;;;;5003813;28;96920;-62
2022/01/29 10:04:06;;;;;;;3.83;1.80;;;22.00;62.60;;;;;;5011083;28;95750;-60
2022/01/29 10:06:38;;;;;;;6.40;2.25;;;21.90;73.20;;;;;;5004021;28;97231;-61
2022/01/29 10:09:11;;;;;;;7.05;1.98;;;21.90;72.90;;;;;;5006885;28;95799;-61
2022/01/29 10:11:42;;;;;;;2.83;1.80;;;21.80;72.50;;;;;;5004908;28;97403;-61
2022/01/29 10:14:52;;;;;;;1.63;1.50;;;21.90;61.40;;;;;;5003262;28;96555;-60
2022/01/29 10:17:47;;;;;;;6.20;1.85;;;22.30;53.70;;;;;;5001890;28;98620;-60
2022/01/29 10:20:23;;;;;;;2.85;1.38;;;21.80;72.90;;;;;;5003561;28;95634;-61
2022/01/29 10:22:56;;;;;;;4.90;1.67;;;21.80;73.30;;;;;;5006278;28;96887;-61
2022/01/29 10:25:32;;;;;;;4.20;1.50;;;21.80;73.60;;;;;;5004897;28;95391;-61
2022/01/29 10:28:20;;;;;;;3.50;1.77;;;21.80;73.80;;;;;;5003925;28;98048;-62
2022/01/29 10:30:52;;;;;;;3.42;1.75;;;21.80;73.90;;;;;;5003934;28;95427;-62
2022/01/29 10:33:38;;;;;;;4.65;1.92;;;21.80;74.10;;;;;;4988962;28;96056;-60
2022/01/29 10:36:17;;;;;;;4.30;1.85;;;21.80;74.20;;;;;;4998934;28;95997;-60
2022/01/29 10:38:58;;;;;;;3.53;1.77;;;21.90;74.30;;;;;;4997358;28;97632;-61
2022/01/29 10:41:33;;;;;;;6.40;2.00;;;21.90;74.50;;;;;;5000404;28;95989;-62
2022/01/29 10:44:21;;;;;;;5.18;2.08;;;21.90;74.50;;;;;;4997429;28;98308;-62
2022/01/29 10:46:58;;;;;;;3.22;1.77;;;21.90;74.80;;;;;;5002492;28;95803;-62
2022/01/29 10:49:34;;;;;;;5.20;1.90;;;21.90;74.80;;;;;;4999216;28;95820;-60
2022/01/29 10:52:07;;;;;;;3.22;1.60;;;21.90;74.70;;;;;;5004260;28;95507;-61
2022/01/29 10:54:53;;;;;;;4.78;1.70;;;22.00;74.80;;;;;;5001699;28;97790;-61
2022/01/29 10:57:45;;;;;;;3.60;1.55;;;22.00;74.80;;;;;;5003408;28;96368;-60
2022/01/29 11:00:30;;;;;;;6.80;2.40;;;21.90;74.80;;;;;;5003899;28;96512;-61
2022/01/29 11:03:06;;;;;;;3.63;1.65;;;22.00;74.80;;;;;;5007164;28;95976;-60
2022/01/29 11:05:41;;;;;;;3.78;1.92;;;22.00;74.80;;;;;;5006723;28;96097;-60
2022/01/29 11:08:14;;;;;;;4.35;1.75;;;22.00;74.80;;;;;;4998255;28;96279;-60
2022/01/29 11:10:51;;;;;;;5.70;2.42;;;22.00;74.80;;;;;;5002829;28;95510;-60
2022/01/29 11:13:42;;;;;;;4.97;2.08;;;22.00;74.90;;;;;;5003605;28;95958;-63
2022/01/29 11:16:14;;;;;;;6.57;2.17;;;22.00;74.80;;;;;;4997463;28;96843;-60
2022/01/29 11:18:45;;;;;;;4.10;2.00;;;22.00;75.40;;;;;;4999309;28;96520;-61
2022/01/29 11:21:18;;;;;;;5.07;1.80;;;22.10;74.90;;;;;;5004223;28;95835;-60
2022/01/29 11:23:48;;;;;;;6.30;2.95;;;22.10;74.90;;;;;;5004956;28;95476;-61
2022/01/29 11:26:19;;;;;;;4.82;2.78;;;22.10;75.10;;;;;;5003389;28;97336;-62
2022/01/29 11:29:10;;;;;;;2.40;1.83;;;22.00;74.90;;;;;;5005787;28;95862;-60
2022/01/29 11:31:42;;;;;;;4.28;2.22;;;22.10;75.20;;;;;;4997623;28;95935;-61
2022/01/29 11:34:14;;;;;;;4.45;2.00;;;22.10;75.10;;;;;;5001998;28;95371;-61
2022/01/29 11:36:48;;;;;;;4.80;2.20;;;22.10;75.00;;;;;;5004427;28;96659;-61
2022/01/29 11:39:24;;;;;;;3.28;1.40;;;22.00;75.10;;;;;;5006074;28;95781;-62
2022/01/29 11:42:13;;;;;;;3.65;2.03;;;22.10;75.10;;;;;;4998672;28;95315;-61
2022/01/29 11:44:48;;;;;;;4.47;1.73;;;22.10;75.20;;;;;;5002418;28;95870;-61
2022/01/29 11:47:25;;;;;;;4.97;2.65;;;22.30;55.80;;;;;;5007603;28;96089;-61
2022/01/29 11:50:32;;;;;;;3.20;1.77;;;22.10;75.20;;;;;;5000431;28;95662;-60
2022/01/29 11:53:05;;;;;;;5.60;1.98;;;22.10;75.10;;;;;;5004128;28;95859;-62
2022/01/29 11:55:44;;;;;;;3.13;1.88;;;22.10;75.20;;;;;;5002096;28;95901;-61
2022/01/29 11:58:17;;;;;;;4.15;1.83;;;22.10;75.30;;;;;;5003228;28;96447;-60
2022/01/29 12:00:52;;;;;;;5.72;1.98;;;22.10;75.20;;;;;;5017228;28;95509;-60
2022/01/29 12:03:38;;;;;;;3.80;1.65;;;22.10;75.20;;;;;;5020425;28;95732;-58
2022/01/29 12:06:14;;;;;;;3.67;1.70;;;22.10;75.30;;;;;;5006287;28;96101;-61
2022/01/29 12:11:39;;;;;;;5.50;1.70;;;22.40;75.20;;;;;;5009369;28;95199;-61
2022/01/29 12:14:18;;;;;;;1.60;1.20;;;22.60;74.40;;;;;;5010516;28;97759;-60
2022/01/29 12:16:48;;;;;;;3.30;2.10;;;22.90;73.90;;;;;;5001507;28;95952;-60
2022/01/29 12:19:45;;;;;;;3.35;2.40;;;23.10;73.30;;;;;;5007802;28;96070;-58
2022/01/29 12:22:25;;;;;;;1.92;1.30;;;23.20;72.70;;;;;;5008088;28;95916;-60
2022/01/29 12:24:59;;;;;;;1.53;1.40;;;23.30;72.50;;;;;;5009523;28;95732;-60
2022/01/29 12:27:46;;;;;;;2.97;1.23;;;23.40;72.30;;;;;;5007329;28;97832;-61
2022/01/29 12:30:25;;;;;;;2.75;1.65;;;23.50;72.10;;;;;;5002596;28;96399;-62
2022/01/29 12:33:06;;;;;;;1.25;1.13;;;23.60;71.90;;;;;;4997477;28;95846;-62
2022/01/29 12:35:58;;;;;;;1.60;1.20;;;23.70;71.80;;;;;;5001022;28;96063;-62
2022/01/29 12:38:39;;;;;;;1.33;1.20;;;23.90;60.90;;;;;;5002473;28;96001;-62
2022/01/29 12:41:25;;;;;;;2.33;1.30;;;23.90;71.40;;;;;;5004272;28;95646;-61
2022/01/29 12:44:02;;;;;;;1.15;0.98;;;23.90;71.30;;;;;;5001947;28;96549;-60
2022/01/29 12:46:33;;;;;;;2.22;1.33;;;24.00;71.10;;;;;;4997279;28;95832;-60
2022/01/29 12:49:14;;;;;;;1.42;1.23;;;24.10;70.80;;;;;;4999678;28;95765;-60
2022/01/29 12:51:56;;;;;;;1.33;1.23;;;24.20;70.70;;;;;;5002735;28;96417;-62
2022/01/29 12:54:34;;;;;;;1.30;1.20;;;24.30;70.40;;;;;;5001965;28;95939;-61
2022/01/29 12:57:07;;;;;;;1.30;1.20;;;24.30;70.40;;;;;;5005591;28;96549;-62
2022/01/29 12:59:39;;;;;;;1.65;1.55;;;24.40;70.30;;;;;;5000738;28;96037;-61
2022/01/29 13:02:29;;;;;;;1.38;1.27;;;24.40;70.20;;;;;;4993568;28;96972;-61
2022/01/29 13:05:02;;;;;;;1.30;1.20;;;24.50;69.90;;;;;;5000429;28;95790;-62
2022/01/29 13:07:36;;;;;;;1.67;1.25;;;24.60;69.80;;;;;;5000617;28;96166;-61
2022/01/29 13:10:08;;;;;;;3.92;1.70;;;24.70;64.70;;;;;;5005833;28;95466;-61
2022/01/29 13:12:44;;;;;;;1.88;1.20;;;24.70;69.60;;;;;;5001284;28;96391;-61
2022/01/29 13:15:15;;;;;;;1.30;1.20;;;24.80;69.70;;;;;;4999032;28;95962;-61
2022/01/29 13:17:47;;;;;;;1.35;1.27;;;24.80;69.50;;;;;;5001326;28;95791;-61
2022/01/29 13:20:18;;;;;;;2.10;1.10;;;24.90;69.40;;;;;;4998444;28;95725;-61
2022/01/29 13:22:51;;;;;;;1.02;1.02;;;24.90;69.20;;;;;;4998534;28;96563;-58
2022/01/29 13:25:31;;;;;;;1.05;1.05;;;25.00;69.20;;;;;;4999312;28;96261;-58
2022/01/29 13:28:16;;;;;;;1.87;1.43;;;25.00;69.20;;;;;;5000953;28;96194;-57
2022/01/29 13:30:48;;;;;;;1.17;1.08;;;24.90;69.30;;;;;;4997632;28;95892;-60